createdAt,value
2023-06-09T00:01:49.636Z,2.50
2023-06-09T00:04:16.492Z,2.13
2023-06-09T00:06:44.220Z,2.10
2023-06-09T00:09:12.011Z,2.00
2023-06-09T00:11:38.445Z,2.15
2023-06-09T00:14:04.899Z,2.25
2023-06-09T00:16:31.396Z,2.38
2023-06-09T00:19:04.481Z,2.55
2023-06-09T00:21:31.367Z,2.38
2023-06-09T00:23:58.331Z,2.47
2023-06-09T00:26:24.962Z,1.77
2023-06-09T00:28:51.742Z,2.80
2023-06-09T00:31:18.137Z,2.17
2023-06-09T00:33:44.543Z,2.20
2023-06-09T00:36:11.489Z,2.50
2023-06-09T00:38:37.994Z,2.17
2023-06-09T00:41:04.604Z,2.10
2023-06-09T00:43:31.048Z,2.30
2023-06-09T00:45:59.058Z,2.47
2023-06-09T00:48:25.507Z,2.90
2023-06-09T00:50:51.958Z,2.28
2023-06-09T00:53:18.924Z,2.50
2023-06-09T00:55:45.399Z,2.55
2023-06-09T00:58:11.965Z,2.90
2023-06-09T01:00:40.130Z,3.10
2023-06-09T01:03:07.200Z,2.55
2023-06-09T01:05:40.038Z,2.13
2023-06-09T01:08:37.428Z,2.70
2023-06-09T01:11:23.756Z,2.20
2023-06-09T01:14:01.216Z,2.33
2023-06-09T01:16:39.749Z,2.58
2023-06-09T01:19:21.800Z,2.45
2023-06-09T01:21:52.368Z,2.58
2023-06-09T01:24:47.091Z,2.58
2023-06-09T01:27:17.758Z,2.33
2023-06-09T01:29:46.071Z,2.55
2023-06-09T01:32:16.728Z,2.55
2023-06-09T01:34:44.727Z,2.55
2023-06-09T01:37:13.103Z,2.55
2023-06-09T01:39:40.367Z,2.70
2023-06-09T01:42:07.698Z,2.92
2023-06-09T01:44:35.664Z,2.55
2023-06-09T01:47:02.924Z,3.13
2023-06-09T01:49:45.895Z,2.85
2023-06-09T01:52:38.046Z,3.13
2023-06-09T01:55:16.058Z,3.05
2023-06-09T01:57:52.271Z,3.05
2023-06-09T02:00:20.524Z,2.97
2023-06-09T02:02:48.441Z,3.05
2023-06-09T02:05:16.877Z,2.38
2023-06-09T02:07:45.272Z,2.65
2023-06-09T02:10:12.492Z,2.42
2023-06-09T02:12:38.936Z,3.20
2023-06-09T02:15:06.347Z,2.95
2023-06-09T02:17:36.202Z,2.60
2023-06-09T02:20:02.715Z,2.85
2023-06-09T02:22:29.094Z,2.88
2023-06-09T02:24:56.420Z,2.67
2023-06-09T02:27:22.932Z,2.42
2023-06-09T02:29:49.302Z,3.05
2023-06-09T02:32:15.702Z,2.88
2023-06-09T02:34:42.260Z,3.00
2023-06-09T02:37:10.640Z,2.78
2023-06-09T02:39:37.134Z,3.28
2023-06-09T02:42:04.009Z,2.95
2023-06-09T02:44:32.943Z,3.20
2023-06-09T02:47:00.727Z,3.17
2023-06-09T02:49:27.148Z,3.22
2023-06-09T02:51:53.527Z,2.97
2023-06-09T02:54:20.014Z,2.90
2023-06-09T02:56:46.391Z,3.28
2023-06-09T02:59:12.846Z,3.05
2023-06-09T03:01:40.321Z,3.88
2023-06-09T03:04:07.685Z,3.15
2023-06-09T03:06:34.653Z,3.22
2023-06-09T03:09:03.424Z,3.40
2023-06-09T03:11:32.612Z,2.92
2023-06-09T03:13:59.000Z,2.78
2023-06-09T03:16:25.469Z,3.15
2023-06-09T03:18:51.911Z,3.08
2023-06-09T03:21:18.330Z,3.03
2023-06-09T03:23:44.851Z,2.88
2023-06-09T03:26:11.425Z,2.95
2023-06-09T03:28:37.825Z,3.05
2023-06-09T03:31:04.276Z,2.85
2023-06-09T03:33:31.004Z,2.50
2023-06-09T03:35:57.535Z,2.78
2023-06-09T03:38:24.378Z,3.00
2023-06-09T03:40:50.818Z,2.78
2023-06-09T03:43:17.295Z,2.58
2023-06-09T03:45:43.784Z,2.97
2023-06-09T03:48:10.333Z,2.55
2023-06-09T03:50:36.746Z,2.75
2023-06-09T03:53:03.183Z,2.67
2023-06-09T03:55:32.495Z,2.58
2023-06-09T03:57:59.085Z,2.45
2023-06-09T04:00:26.249Z,2.40
2023-06-09T04:02:52.680Z,2.95
2023-06-09T04:05:19.111Z,2.38
2023-06-09T04:07:45.548Z,2.90
2023-06-09T04:10:12.079Z,1.98
2023-06-09T04:12:39.281Z,2.38
2023-06-09T04:15:07.818Z,2.33
2023-06-09T04:17:37.500Z,2.20
2023-06-09T04:20:06.341Z,2.05
2023-06-09T04:22:32.979Z,2.50
2023-06-09T04:24:59.417Z,2.28
2023-06-09T04:27:26.820Z,2.10
2023-06-09T04:29:53.297Z,1.80
2023-06-09T04:32:20.294Z,2.20
2023-06-09T04:34:47.176Z,2.33
2023-06-09T04:37:13.999Z,1.90
2023-06-09T04:39:46.935Z,1.98
2023-06-09T04:42:13.529Z,2.00
2023-06-09T04:44:41.409Z,1.88
2023-06-09T04:47:11.702Z,1.83
2023-06-09T04:49:38.574Z,2.57
2023-06-09T04:52:08.674Z,1.98
2023-06-09T04:54:35.357Z,2.17
2023-06-09T04:57:03.208Z,1.85
2023-06-09T04:59:33.061Z,1.92
2023-06-09T05:01:59.867Z,1.80
2023-06-09T05:04:26.288Z,2.20
2023-06-09T05:06:53.232Z,1.63
2023-06-09T05:09:19.642Z,2.35
2023-06-09T05:11:46.016Z,2.08
2023-06-09T05:14:12.650Z,1.77
2023-06-09T05:16:39.466Z,1.92
2023-06-09T05:19:07.510Z,1.90
2023-06-09T05:21:34.713Z,1.65
2023-06-09T05:24:01.197Z,1.77
2023-06-09T05:26:29.087Z,1.25
2023-06-09T05:28:55.737Z,1.50
2023-06-09T05:31:22.254Z,1.70
2023-06-09T05:33:48.764Z,1.98
2023-06-09T05:36:15.167Z,1.52
2023-06-09T05:38:41.624Z,1.67
2023-06-09T05:41:08.202Z,1.90
2023-06-09T05:43:34.863Z,1.50
2023-06-09T05:46:01.383Z,1.60
2023-06-09T05:48:27.829Z,1.55
2023-06-09T05:50:54.765Z,1.48
2023-06-09T05:53:22.548Z,1.58
2023-06-09T05:55:49.085Z,1.50
2023-06-09T05:58:15.979Z,1.48
2023-06-09T06:00:42.606Z,1.45
2023-06-09T06:03:11.609Z,1.50
2023-06-09T06:05:39.023Z,1.43
2023-06-09T06:08:07.499Z,1.35
2023-06-09T06:10:33.947Z,1.30
2023-06-09T06:13:03.208Z,1.70
2023-06-09T06:15:29.677Z,1.73
2023-06-09T06:17:56.274Z,1.40
2023-06-09T06:20:22.731Z,1.63
2023-06-09T06:22:49.948Z,1.52
2023-06-09T06:25:16.371Z,1.55
2023-06-09T06:27:46.084Z,1.33
2023-06-09T06:30:14.584Z,1.38
2023-06-09T06:32:52.722Z,1.80
2023-06-09T06:35:30.062Z,1.60
2023-06-09T06:37:57.743Z,1.50
2023-06-09T06:40:25.589Z,1.60
2023-06-09T06:42:52.529Z,1.70
2023-06-09T06:45:19.688Z,1.50
2023-06-09T06:47:46.722Z,1.88
2023-06-09T06:50:13.826Z,1.50
2023-06-09T06:52:40.953Z,1.77
2023-06-09T06:55:08.623Z,1.70
2023-06-09T06:57:36.337Z,1.65
2023-06-09T07:00:13.431Z,1.80
2023-06-09T07:02:41.258Z,1.60
2023-06-09T07:05:09.562Z,1.65
2023-06-09T07:07:36.042Z,1.77
2023-06-09T07:10:03.616Z,1.75
2023-06-09T07:12:30.053Z,2.25
2023-06-09T07:14:59.386Z,2.03
2023-06-09T07:17:26.059Z,1.85
2023-06-09T07:19:52.559Z,1.70
2023-06-09T07:22:18.995Z,1.85
2023-06-09T07:24:45.667Z,2.40
2023-06-09T07:27:12.061Z,1.75
2023-06-09T07:29:38.496Z,1.80
2023-06-09T07:32:05.601Z,1.50
2023-06-09T07:34:33.023Z,1.63
2023-06-09T07:37:00.358Z,1.95
2023-06-09T07:39:27.345Z,1.58
2023-06-09T07:41:53.736Z,2.28
2023-06-09T07:44:20.209Z,2.00
2023-06-09T07:46:46.771Z,1.90
2023-06-09T07:49:14.370Z,1.63
2023-06-09T07:51:42.398Z,1.92
2023-06-09T07:54:08.803Z,1.83
2023-06-09T07:56:35.397Z,2.15
2023-06-09T07:59:01.985Z,2.00
2023-06-09T08:01:30.274Z,1.80
2023-06-09T08:03:57.659Z,2.33
2023-06-09T08:06:24.649Z,2.30
2023-06-09T08:08:51.163Z,2.20
2023-06-09T08:11:17.582Z,1.83
2023-06-09T08:13:43.993Z,1.92
2023-06-09T08:16:10.552Z,1.77
2023-06-09T08:18:37.048Z,1.58
2023-06-09T08:21:03.821Z,2.10
2023-06-09T08:23:31.126Z,1.95
2023-06-09T08:25:57.590Z,1.75
2023-06-09T08:28:23.984Z,1.85
2023-06-09T08:30:50.413Z,1.83
2023-06-09T08:33:16.904Z,1.92
2023-06-09T08:35:43.479Z,2.08
2023-06-09T08:38:09.938Z,1.95
2023-06-09T08:40:36.692Z,1.92
2023-06-09T08:43:06.385Z,1.90
2023-06-09T08:45:35.032Z,1.50
2023-06-09T08:48:02.714Z,2.05
2023-06-09T08:50:31.192Z,1.70
2023-06-09T08:52:58.239Z,1.80
2023-06-09T08:55:24.981Z,1.88
2023-06-09T08:57:52.386Z,1.70
2023-06-09T09:00:19.250Z,1.90
2023-06-09T09:02:46.051Z,1.63
2023-06-09T09:05:12.918Z,1.80
2023-06-09T09:07:41.704Z,1.55
2023-06-09T09:10:08.418Z,1.92
2023-06-09T09:12:47.999Z,1.70
2023-06-09T09:15:14.497Z,2.33
2023-06-09T09:17:41.880Z,1.70
2023-06-09T09:20:09.485Z,2.08
2023-06-09T09:22:46.276Z,2.13
2023-06-09T09:25:29.377Z,1.98
2023-06-09T09:28:07.448Z,2.25
2023-06-09T09:30:50.711Z,2.25
2023-06-09T09:33:22.353Z,1.98
2023-06-09T09:35:54.460Z,1.80
2023-06-09T09:38:26.133Z,1.70
2023-06-09T09:40:54.794Z,1.77
2023-06-09T09:43:25.036Z,1.55
2023-06-09T09:45:53.163Z,2.13
2023-06-09T09:48:23.282Z,2.28
2023-06-09T09:50:52.315Z,2.13
2023-06-09T09:53:23.354Z,2.17
2023-06-09T09:55:55.744Z,2.30
2023-06-09T09:58:30.662Z,1.80
2023-06-09T10:01:00.090Z,1.90
2023-06-09T10:03:27.632Z,1.95
2023-06-09T10:05:56.462Z,1.60
2023-06-09T10:08:27.856Z,2.10
2023-06-09T10:10:57.615Z,1.85
2023-06-09T10:13:27.220Z,2.03
2023-06-09T10:15:57.923Z,1.85
2023-06-09T10:18:25.039Z,2.45
2023-06-09T10:20:56.289Z,2.20
2023-06-09T10:23:24.216Z,1.98
2023-06-09T10:25:51.799Z,2.28
2023-06-09T10:28:19.328Z,1.90
2023-06-09T10:30:47.723Z,1.73
2023-06-09T10:33:27.823Z,2.17
2023-06-09T10:35:58.478Z,2.10
2023-06-09T10:38:46.725Z,2.50
2023-06-09T10:41:24.146Z,2.20
2023-06-09T10:43:53.563Z,2.47
2023-06-09T10:46:39.561Z,2.35
2023-06-09T10:49:06.308Z,1.75
2023-06-09T10:51:33.012Z,2.42
2023-06-09T10:54:08.549Z,2.28
2023-06-09T10:56:37.197Z,2.03
2023-06-09T10:59:04.854Z,2.00
2023-06-09T11:01:31.328Z,2.60
2023-06-09T11:03:57.787Z,2.17
2023-06-09T11:06:24.243Z,2.45
2023-06-09T11:09:10.346Z,2.75
2023-06-09T11:11:53.239Z,1.85
2023-06-09T11:14:45.053Z,2.55
2023-06-09T11:17:27.239Z,2.17
2023-06-09T11:20:11.737Z,1.75
2023-06-09T11:22:41.812Z,2.50
2023-06-09T11:25:20.596Z,2.47
2023-06-09T11:27:49.499Z,2.27
2023-06-09T11:30:21.585Z,2.28
2023-06-09T11:32:57.452Z,2.13
2023-06-09T11:35:24.129Z,2.67
2023-06-09T11:37:52.178Z,2.17
2023-06-09T11:40:19.750Z,2.08
2023-06-09T11:42:46.981Z,2.30
2023-06-09T11:45:13.564Z,2.65
2023-06-09T11:47:44.789Z,1.98
2023-06-09T11:50:14.245Z,2.20
2023-06-09T11:52:45.912Z,2.00
2023-06-09T11:55:15.920Z,1.70
2023-06-09T11:57:42.532Z,2.33
2023-06-09T12:00:14.036Z,1.45
2023-06-09T12:02:46.656Z,1.90
2023-06-09T12:05:14.552Z,1.92
2023-06-09T12:07:45.946Z,1.67
2023-06-09T12:10:13.945Z,1.70
2023-06-09T12:12:47.636Z,1.50
2023-06-09T12:15:16.363Z,1.45
2023-06-09T12:17:44.350Z,1.85
2023-06-09T12:20:26.239Z,1.52
2023-06-09T12:22:55.614Z,1.60
2023-06-09T12:25:30.097Z,1.70
2023-06-09T12:27:59.224Z,1.48
2023-06-09T12:30:35.530Z,1.85
2023-06-09T12:33:13.934Z,2.05
2023-06-09T12:35:42.140Z,1.58
2023-06-09T12:38:28.120Z,1.50
2023-06-09T12:40:56.585Z,1.45
2023-06-09T12:43:24.979Z,1.77
2023-06-09T12:45:56.081Z,1.60
2023-06-09T12:48:22.897Z,1.73
2023-06-09T12:50:49.569Z,1.83
2023-06-09T12:53:16.298Z,1.83
2023-06-09T12:55:44.115Z,2.03
2023-06-09T12:58:11.449Z,1.90
2023-06-09T13:00:39.494Z,2.03
2023-06-09T13:03:09.201Z,1.70
2023-06-09T13:05:36.126Z,1.92
2023-06-09T13:08:04.215Z,1.90
2023-06-09T13:10:31.659Z,1.38
2023-06-09T13:12:58.216Z,1.88
2023-06-09T13:15:26.064Z,1.50
2023-06-09T13:17:53.631Z,1.73
2023-06-09T13:20:21.207Z,2.05
2023-06-09T13:22:48.600Z,1.70
2023-06-09T13:25:15.926Z,1.90
2023-06-09T13:27:42.961Z,1.70
2023-06-09T13:30:10.173Z,1.48
2023-06-09T13:32:37.092Z,2.08
2023-06-09T13:35:04.288Z,1.83
2023-06-09T13:37:31.027Z,1.85
2023-06-09T13:39:57.535Z,1.85
2023-06-09T13:42:24.374Z,1.38
2023-06-09T13:44:50.790Z,1.52
2023-06-09T13:47:17.456Z,1.80
2023-06-09T13:49:44.657Z,1.98
2023-06-09T13:52:11.446Z,2.10
2023-06-09T13:54:38.181Z,1.88
2023-06-09T13:57:08.205Z,1.70
2023-06-09T13:59:37.923Z,2.00
2023-06-09T14:02:05.732Z,1.90
2023-06-09T14:04:32.695Z,1.80
2023-06-09T14:06:59.814Z,1.90
2023-06-09T14:09:26.364Z,1.90
2023-06-09T14:11:52.783Z,2.03
2023-06-09T14:14:19.303Z,2.00
2023-06-09T14:16:47.084Z,1.90
2023-06-09T14:19:13.758Z,2.05
2023-06-09T14:21:40.237Z,1.90
2023-06-09T14:24:09.463Z,1.55
2023-06-09T14:26:36.394Z,2.20
2023-06-09T14:29:03.558Z,1.27
2023-06-09T14:31:30.567Z,1.92
2023-06-09T14:33:57.070Z,1.98
2023-06-09T14:36:23.596Z,1.58
2023-06-09T14:38:50.221Z,1.52
2023-06-09T14:41:16.596Z,1.83
2023-06-09T14:43:43.065Z,1.65
2023-06-09T14:46:09.620Z,1.48
2023-06-09T14:48:36.448Z,1.67
2023-06-09T14:51:02.932Z,1.67
2023-06-09T14:53:29.327Z,1.67
2023-06-09T14:55:56.427Z,1.40
2023-06-09T14:58:22.795Z,1.60
2023-06-09T15:00:49.349Z,1.42
2023-06-09T15:03:19.891Z,1.40
2023-06-09T15:05:46.943Z,1.70
2023-06-09T15:08:13.532Z,1.83
2023-06-09T15:10:44.098Z,1.75
2023-06-09T15:13:11.433Z,1.33
2023-06-09T15:15:38.052Z,1.30
2023-06-09T15:18:06.760Z,1.50
2023-06-09T15:20:34.395Z,1.20
2023-06-09T15:23:03.092Z,1.40
2023-06-09T15:25:34.524Z,1.08
2023-06-09T15:28:03.146Z,1.20
2023-06-09T15:30:35.635Z,1.00
2023-06-09T15:33:09.071Z,1.20
2023-06-09T15:35:37.712Z,1.48
2023-06-09T15:38:06.732Z,1.23
2023-06-09T15:40:37.775Z,1.20
2023-06-09T15:43:04.311Z,1.10
2023-06-09T15:45:38.096Z,1.30
2023-06-09T15:48:04.839Z,1.10
2023-06-09T15:50:31.340Z,1.15
2023-06-09T15:52:59.037Z,1.17
2023-06-09T15:55:25.783Z,1.10
2023-06-09T15:57:52.269Z,1.02
2023-06-09T16:00:19.155Z,0.80
2023-06-09T16:02:45.711Z,0.73
2023-06-09T16:05:12.199Z,1.05
2023-06-09T16:07:38.642Z,0.70
2023-06-09T16:10:05.469Z,1.02
2023-06-09T16:12:31.887Z,0.93
2023-06-09T16:14:58.300Z,0.98
2023-06-09T16:17:24.775Z,1.08
2023-06-09T16:19:51.227Z,1.00
2023-06-09T16:22:17.640Z,0.93
2023-06-09T16:24:44.166Z,0.90
2023-06-09T16:27:10.931Z,0.70
2023-06-09T16:29:37.410Z,0.85
2023-06-09T16:32:04.041Z,0.70
2023-06-09T16:34:30.450Z,0.60
2023-06-09T16:36:56.823Z,0.80
2023-06-09T16:39:23.224Z,1.00
2023-06-09T16:41:49.690Z,0.90
2023-06-09T16:44:16.463Z,0.80
2023-06-09T16:46:42.916Z,0.90
2023-06-09T16:49:09.325Z,0.47
2023-06-09T16:51:35.750Z,0.90
2023-06-09T16:54:02.210Z,0.82
2023-06-09T16:56:28.625Z,0.80
2023-06-09T16:58:55.015Z,0.80
2023-06-09T17:01:21.409Z,0.80
2023-06-09T17:03:47.987Z,0.85
2023-06-09T17:06:14.503Z,1.05
2023-06-09T17:08:42.928Z,0.80
2023-06-09T17:11:09.463Z,0.77
2023-06-09T17:13:36.078Z,0.95
2023-06-09T17:16:02.534Z,0.70
2023-06-09T17:18:29.121Z,0.65
2023-06-09T17:20:55.763Z,0.95
2023-06-09T17:23:22.175Z,0.70
2023-06-09T17:25:48.538Z,0.77
2023-06-09T17:28:15.506Z,0.75
2023-06-09T17:30:43.153Z,0.90
2023-06-09T17:33:09.692Z,0.88
2023-06-09T17:35:36.125Z,0.80
2023-06-09T17:38:02.558Z,0.73
2023-06-09T17:40:29.138Z,0.60
2023-06-09T17:42:55.569Z,0.85
2023-06-09T17:45:22.020Z,0.70
2023-06-09T17:47:48.443Z,0.55
2023-06-09T17:50:14.910Z,0.90
2023-06-09T17:52:41.332Z,0.70
2023-06-09T17:55:08.941Z,0.80
2023-06-09T17:57:35.920Z,0.80
2023-06-09T18:00:05.709Z,0.90
2023-06-09T18:04:58.689Z,0.47
2023-06-09T18:07:25.142Z,0.80
2023-06-09T18:09:51.584Z,0.57
2023-06-09T18:12:17.977Z,0.85
2023-06-09T18:14:44.495Z,1.05
2023-06-09T18:17:11.413Z,0.50
2023-06-09T18:19:37.884Z,0.90
2023-06-09T18:22:04.508Z,0.80
2023-06-09T18:24:31.201Z,0.82
2023-06-09T18:26:57.564Z,0.80
2023-06-09T18:29:23.942Z,0.90
2023-06-09T18:31:50.368Z,0.77
2023-06-09T18:34:16.763Z,0.70
2023-06-09T18:36:43.152Z,0.57
2023-06-09T18:39:09.801Z,0.90
2023-06-09T18:41:36.269Z,1.10
2023-06-09T18:44:13.553Z,0.90
2023-06-09T18:46:40.094Z,1.15
2023-06-09T18:49:06.591Z,0.82
2023-06-09T18:51:32.966Z,1.00
2023-06-09T18:54:00.111Z,1.10
2023-06-09T18:56:27.142Z,1.10
2023-06-09T18:58:54.217Z,1.20
2023-06-09T19:01:21.429Z,1.10
2023-06-09T19:03:48.542Z,1.20
2023-06-09T19:06:16.209Z,1.00
2023-06-09T19:08:42.649Z,1.00
2023-06-09T19:11:09.050Z,0.90
2023-06-09T19:13:35.563Z,0.93
2023-06-09T19:16:02.112Z,0.98
2023-06-09T19:18:28.587Z,0.93
2023-06-09T19:20:56.889Z,0.95
2023-06-09T19:23:23.543Z,1.00
2023-06-09T19:25:50.838Z,1.00
2023-06-09T19:28:17.242Z,1.00
2023-06-09T19:30:43.976Z,1.05
2023-06-09T19:33:10.513Z,1.02
2023-06-09T19:35:36.990Z,1.08
2023-06-09T19:38:03.376Z,1.15
2023-06-09T19:40:29.942Z,0.80
2023-06-09T19:42:56.344Z,1.00
2023-06-09T19:45:23.371Z,1.25
2023-06-09T19:47:49.789Z,1.13
2023-06-09T19:50:16.263Z,1.10
2023-06-09T19:52:42.661Z,1.70
2023-06-09T19:55:09.535Z,1.15
2023-06-09T19:57:37.063Z,1.20
2023-06-09T20:00:06.639Z,1.30
2023-06-09T20:02:35.867Z,1.20
2023-06-09T20:05:02.672Z,1.17
2023-06-09T20:07:29.111Z,1.40
2023-06-09T20:09:55.640Z,1.30
2023-06-09T20:12:23.781Z,1.10
2023-06-09T20:14:50.190Z,1.30
2023-06-09T20:17:16.615Z,1.40
2023-06-09T20:19:43.066Z,1.33
2023-06-09T20:22:09.507Z,1.58
2023-06-09T20:24:36.339Z,1.10
2023-06-09T20:27:02.773Z,1.15
2023-06-09T20:29:29.850Z,0.93
2023-06-09T20:31:56.333Z,1.05
2023-06-09T20:34:22.749Z,1.10
2023-06-09T20:36:49.193Z,1.40
2023-06-09T20:39:15.659Z,0.70
2023-06-09T20:41:42.121Z,0.85
2023-06-09T20:44:09.496Z,0.82
2023-06-09T20:46:36.084Z,1.00
2023-06-09T20:49:02.929Z,0.95
2023-06-09T20:51:29.342Z,1.02
2023-06-09T20:53:57.181Z,0.90
2023-06-09T20:56:24.029Z,1.25
2023-06-09T20:58:51.234Z,1.20
2023-06-09T21:01:17.928Z,0.77
2023-06-09T21:03:47.539Z,0.80
2023-06-09T21:08:48.844Z,0.70
2023-06-09T21:11:15.488Z,1.20
2023-06-09T21:13:41.964Z,1.40
2023-06-09T21:16:08.478Z,0.80
2023-06-09T21:18:34.937Z,0.90
2023-06-09T21:21:01.506Z,0.95
2023-06-09T21:23:27.879Z,0.90
2023-06-09T21:25:54.320Z,1.13
2023-06-09T21:28:20.773Z,1.15
2023-06-09T21:30:47.223Z,1.00
2023-06-09T21:33:13.683Z,1.20
2023-06-09T21:35:40.281Z,1.02
2023-06-09T21:38:06.726Z,1.27
2023-06-09T21:40:33.232Z,1.05
2023-06-09T21:42:59.640Z,1.08
2023-06-09T21:45:27.910Z,0.88
2023-06-09T21:47:54.425Z,1.38
2023-06-09T21:50:21.127Z,0.93
2023-06-09T21:52:47.528Z,1.00
2023-06-09T21:55:14.657Z,0.98
2023-06-09T21:57:41.116Z,1.08
2023-06-09T22:00:08.514Z,1.15
2023-06-09T22:02:35.282Z,0.90
2023-06-09T22:05:01.758Z,0.95
2023-06-09T22:07:28.150Z,1.02
2023-06-09T22:09:54.598Z,1.10
2023-06-09T22:12:21.173Z,1.02
2023-06-09T22:14:47.563Z,0.90
2023-06-09T22:17:15.617Z,0.77
2023-06-09T22:19:42.131Z,1.27
2023-06-09T22:22:08.577Z,0.90
2023-06-09T22:24:35.011Z,0.80
2023-06-09T22:27:02.516Z,0.90
2023-06-09T22:29:29.220Z,1.17
2023-06-09T22:31:55.866Z,0.93
2023-06-09T22:34:22.291Z,1.00
2023-06-09T22:36:48.841Z,0.88
2023-06-09T22:39:15.301Z,1.05
2023-06-09T22:41:41.678Z,0.88
2023-06-09T22:44:08.162Z,0.60
2023-06-09T22:46:34.969Z,0.80
2023-06-09T22:49:03.881Z,0.90
2023-06-09T22:51:30.447Z,1.15
2023-06-09T22:53:59.480Z,0.85
2023-06-09T22:56:26.492Z,0.60
2023-06-09T22:58:52.952Z,0.70
2023-06-09T23:01:19.386Z,0.80
2023-06-09T23:03:45.857Z,0.90
2023-06-09T23:06:14.897Z,1.10
2023-06-09T23:08:41.398Z,1.07
2023-06-09T23:11:07.879Z,0.90
2023-06-09T23:13:34.350Z,0.80
2023-06-09T23:16:01.504Z,0.70
2023-06-09T23:18:30.534Z,1.08
2023-06-09T23:20:57.209Z,1.13
2023-06-09T23:23:24.595Z,0.90
2023-06-09T23:25:50.980Z,0.77
2023-06-09T23:28:17.442Z,1.02
2023-06-09T23:30:43.862Z,0.75
2023-06-09T23:33:10.326Z,0.77
2023-06-09T23:35:37.644Z,0.80
2023-06-09T23:38:04.171Z,0.90
2023-06-09T23:40:30.692Z,1.10
2023-06-09T23:42:57.082Z,0.90
2023-06-09T23:45:23.508Z,0.70
2023-06-09T23:47:50.015Z,0.88
2023-06-09T23:50:16.519Z,0.90
2023-06-09T23:52:42.971Z,0.57
2023-06-09T23:55:10.000Z,1.05
2023-06-09T23:57:36.691Z,0.90
